x

8452951 - Potter Cove, Prudence Island, Ri (ptcr1) Weather Station

4:30 - Tue 3rd May 2016 All times are EDT. -4 hours from GMT.

  • Wind
    2mph, 5mph gusts
  • Ar Temp 49°f
  • Sea Pressure 1014.1mb
  • 8452951 - Potter Cove, Prudence Island, Ri
  • 8452951 - Potter Cove, Prudence Island, Ri

More Historic Weather Station data

Upgrade to MSW Pro to gain access to the past 30 days of data for over 8000 Wavebouys and Weather Stations around the globe.

Join Pro

Comparision Forecast

View Surf forecast
   
Ter 05/03 4:30 2 5 mph 1014.1mb 49f
4:24 2 3 mph 1014.1mb 49f
4:18 2 3 mph 1014.2mb 49f
4:12 1 2 mph 1014.4mb 49f
4:06  -  2 mph 1014.7mb 49f
4:00 2
mph
1014.7mb 49f
3:54  -  2 mph 1014.6mb 49f
3:48  -  1 mph 1014.6mb 49f
3:42 2 3 mph 1013.8mb 49f
3:36  -  1 mph 1013.8mb 49f
3:30 2 5 mph 1013.8mb 49f
3:24 6 7 mph 1013mb 50f
3:18 7 9 mph 1012.7mb 50f
3:12 6 8 mph 1012.7mb 50f
3:06 3 6 mph 1013.3mb 50f
3:00 5 7 mph 1012.9mb 50f
2:54 6 8 mph 1013.2mb 50f
2:48 6 8 mph 1013.2mb 50f
2:42 2 5 mph 1013.9mb 50f
2:36 5 8 mph 1013.5mb 50f
2:30 8 10 mph 1013mb 51f
2:24 8 11 mph 1012.9mb 51f
2:18 8 10 mph 1013.1mb 51f
2:12 7 10 mph 1013.1mb 51f
2:06 7 10 mph 1013.4mb 51f
2:00 8 10 mph 1013.3mb 51f
1:54 8 10 mph 1013.6mb 51f
1:48 8 10 mph 1013.6mb 51f
1:42 7 10 mph 1013.6mb 51f
1:36 5 7 mph 1013.9mb 50f
1:30 5 7 mph 1014.1mb 50f
1:24 6 7 mph 1014mb 51f
1:18 7 9 mph 1014mb 51f
1:12 7 9 mph 1014.2mb 51f
1:06 8 11 mph 1014.2mb 51f
1:00 8 11 mph 1013.9mb 51f
12:54 9 11 mph 1013.9mb 51f
12:48 8 11 mph 1014mb 51f
12:42 7 10 mph 1014.3mb 51f
12:36 7 9 mph 1014.5mb 51f
12:30 8 10 mph 1014.5mb 51f
12:24 7 9 mph 1014.6mb 51f
12:18 7 9 mph 1014.5mb 51f
12:12 7 9 mph 1014.6mb 51f
12:06 7 10 mph 1014.6mb 51f
12:00 7 9 mph 1014.3mb 51f
Seg 05/02 11:54 7 9 mph 1014.3mb 51f
11:48 5 7 mph 1014.6mb 51f
11:42 6 8 mph 1014.2mb 51f
11:36 6 8 mph 1014.3mb 52f
11:30 5 7 mph 1014.4mb 52f
11:24 7 9 mph 1014.3mb 52f
11:18 9 11 mph 1014.2mb 53f
11:12 5 8 mph 1014.4mb 53f
11:06 5 8 mph 1014.1mb 53f
11:00 5 8 mph 1014.1mb 53f
10:54 3 7 mph 1014.2mb 53f
10:48  -  mph 1014.2mb -
10:42  -  mph 1014.3mb -
10:36  -  mph 1014.2mb -
10:30 5 10 mph 1014.2mb 53f
10:24 3 6 mph 1014.3mb 53f
10:18  -  mph 1014.2mb 54f
10:12  -  mph 1014.1mb 54f
10:06  -  mph 1014.1mb 54f
10:00  -  mph 1014.1mb 54f
9:54  -  mph 1014.2mb 54f
9:48 3 6 mph 1014.1mb -
9:42 2 3 mph 1014.1mb -
9:36 3 7 mph 1013.8mb -
9:30 2 5 mph 1013.8mb -
9:24 3 6 mph 1013.8mb -
9:18  -  mph 1013.9mb 55f
9:12  -  mph 1014mb 55f
9:06  -  mph 1014.3mb 55f
9:00  -  mph 1014.1mb 55f
8:54  -  mph 1014.1mb 55f
8:48 5 6 mph 1013.8mb -
8:42 5 6 mph 1013.6mb -
8:36 5 7 mph 1013.6mb -
8:30 6 9 mph 1013.3mb 55f
8:24 5 7 mph 1013.2mb 55f
8:18  -  mph 1013mb 56f
8:12  -  mph 1013mb 56f
8:06  -  mph 1013.1mb 56f
8:00  -  mph 1013.2mb 56f
7:54  -  mph 1013mb 56f
7:48  -  mph 1012.8mb -
7:42  -  mph 1013mb -
7:36  -  mph 1012.9mb -
7:30  -  mph 1012.7mb -
7:24  -  mph 1012.6mb -
7:18 3 6 mph 1012.8mb -
7:12 1 2 mph 1012.9mb -
7:06 1 2 mph 1012.7mb -
7:00  -  2 mph 1012.7mb 53f
6:54 2 5 mph 1012.6mb 53f
6:48  -  mph 1012.5mb -
6:42  -  mph 1012.5mb -
6:36  -  mph 1012.4mb -
6:30  -  mph 1012.3mb -
6:24  -  mph 1012.2mb -
6:18  -  mph 1011.9mb 53f
6:12  -  mph 1011.8mb 53f
6:06  -  mph 1011.8mb 53f
6:00  -  mph 1011.7mb 53f
5:54  -  mph 1011.7mb 53f
5:48  -  mph 1011.6mb 53f
5:42  -  mph 1011.2mb -
5:36  -  mph 1011.3mb -
5:30 5 8 mph 1011.6mb 53f
5:24 6 10 mph 1011.7mb 53f
5:18 7 11 mph 1011.7mb 53f
5:12 5 9 mph 1011.7mb 53f
5:06 3 8 mph 1011.7mb 53f
5:00 3 6 mph 1011.7mb 54f
4:54 3 6 mph 1011.8mb 54f
4:48 3 6 mph 1011.8mb 54f
4:42 5 7 mph 1011.9mb 54f
4:36 3 6 mph 1011.7mb 54f
4:30 3 5 mph 1011.7mb 55f
4:24 2 3 mph 1011.6mb 54f
4:18 2 3 mph 1011.7mb 54f
4:12  -  2 mph 1011.8mb 54f
4:06 2 3 mph 1011.9mb 54f
4:00 3 5 mph 1012mb 54f
3:54 3 5 mph 1012mb 54f
3:48 5 6 mph 1012.2mb 54f
3:42 3 6 mph 1012.2mb 55f
3:36 3 5 mph 1012.3mb 55f
3:30 3 6 mph 1012.3mb 55f
3:24 3 6 mph 1012.3mb 55f
3:18 2 5 mph 1012.4mb 55f
3:12 3 6 mph 1012.4mb 55f
3:06 2 5 mph 1012.6mb 55f
3:00 3 5 mph 1012.5mb 54f
2:54 1 2 mph 1012.5mb 54f
2:48  -  2 mph 1012.6mb 55f
2:42 2
mph
1012.5mb 54f
2:36 1 2 mph 1012.5mb 54f
2:30  -  1 mph 1012.7mb 54f
2:24 2
mph
1012.7mb 54f
2:18 3 5 mph 1012.7mb 53f
2:12 6 7 mph 1012.8mb 53f
2:06 6 7 mph 1013mb 53f
2:00 6 7 mph 1013.2mb 53f
1:54 6 7 mph 1013.4mb 53f
1:48 5 7 mph 1013.4mb 53f
1:42 6 7 mph 1013.5mb 53f
1:36 7 9 mph 1013.5mb 53f
1:30 7 8 mph 1013.5mb 53f
1:24 7 9 mph 1013.6mb 53f
1:18 6 8 mph 1013.7mb 52f
1:12 6 7 mph 1014mb 52f
1:06 5 8 mph 1014.2mb 52f
1:00 3 7 mph 1014.4mb 52f
12:54 5 9 mph 1014.7mb 52f
12:48 2 7 mph 1014.8mb 52f
12:42 6 10 mph 1015.5mb 51f
12:36 5 7 mph 1015.1mb 51f
12:30 5 14 mph 1015.1mb 51f
12:24 13 24 mph 1016mb 52f
12:18 2 5 mph 1013.5mb 52f
12:12 7 9 mph 1013mb 52f
12:06 7 9 mph 1013.1mb 52f
12:00 6 8 mph 1013.6mb 52f
11:54 8 11 mph 1013.3mb 52f
11:48 7 9 mph 1013.8mb 51f
11:42 7 8 mph 1013.8mb 51f
11:36 8 9 mph 1013.8mb 51f
11:30 8 10 mph 1014.3mb 51f
11:24 8 10 mph 1014.4mb 51f
11:18 7 10 mph 1014.5mb 51f
11:12 9 11 mph 1014.5mb 51f
11:06 8 10 mph 1014.7mb 51f
11:00 8 10 mph 1014.8mb 51f
10:54 8 10 mph 1014.9mb 51f
10:48 8 11 mph 1014.9mb 51f
10:42 7 9 mph 1015.1mb 51f
10:36 7 8 mph 1015.2mb 51f
10:30 7 9 mph 1015.3mb 50f
10:24 7 8 mph 1015.4mb 50f
10:18 7 9 mph 1015.5mb 50f
10:12 7 9 mph 1015.6mb 50f
10:06 7 9 mph 1015.6mb 50f
10:00 7 9 mph 1016mb 50f
9:54 7 10 mph 1016.2mb 50f
9:48 7 9 mph 1016.3mb -
9:42 8 10 mph 1016.2mb -
9:36 6 9 mph 1016.5mb -
9:30 8 10 mph 1016.5mb 50f
9:24 8 11 mph 1016.5mb 50f
9:18 9 10 mph 1016.6mb 50f
9:12 9 11 mph 1016.6mb 50f
9:06 8 11 mph 1016.7mb 50f
9:00 9 11 mph 1016.7mb 49f
8:54 9 11 mph 1016.7mb 49f
8:48 10 13 mph 1016.5mb 49f
8:42 10 13 mph 1016.5mb 49f
8:36 9 11 mph 1016.6mb 49f
8:30 9 11 mph 1016.9mb 49f
8:24 9 13 mph 1016.9mb 49f
8:18 9 13 mph 1016.6mb 49f
8:12 10 14 mph 1016.6mb 48f
8:06 11 15 mph 1016.6mb 48f
8:00 10 13 mph 1016.7mb 48f
7:54 9 13 mph 1016.8mb 48f
7:48 10 14 mph 1016.8mb 48f
7:42 10 13 mph 1016.8mb 48f
7:36 10 14 mph 1016.7mb 47f
7:30 10 14 mph 1016.8mb 47f
7:24 10 13 mph 1017.1mb 47f
7:18 10 15 mph 1017mb 47f
7:12 11 14 mph 1017mb 47f
7:06 13 16 mph 1016.9mb 47f
7:00 11 15 mph 1017mb 47f
6:54 11 16 mph 1017.2mb 47f
6:48 11 14 mph 1017.2mb 47f
6:42 10 15 mph 1017.3mb 47f
6:36 11 16 mph 1017.1mb 47f
6:30 11 16 mph 1017mb 47f
6:24 10 14 mph 1017mb 47f
6:18 10 14 mph 1017.1mb 46f
6:12 9 13 mph 1016.9mb 47f
6:06 9 13 mph 1017.1mb 46f
6:00 9 13 mph 1016.9mb 46f
5:54 9 13 mph 1017.2mb 46f
5:48 10 13 mph 1017mb 46f
5:42 9 11 mph 1017mb 46f
5:36 10 14 mph 1016.8mb 46f
5:30 10 14 mph 1016.5mb 46f
5:24 10 14 mph 1016.7mb 46f
5:18 9 13 mph 1016.7mb 46f
5:12 9 13 mph 1017.1mb 46f
5:06 11 15 mph 1016.9mb 46f
5:00 11 15 mph 1016.9mb 46f
4:54 11 15 mph 1017mb 46f
4:48 13 16 mph 1016.9mb 47f
4:42 11 16 mph 1017.1mb 47f
4:36 11 16 mph 1017.1mb 46f
4:30 10 15 mph 1017mb 46f
4:24 10 14 mph 1017.2mb 46f
4:18 10 14 mph 1017.3mb 46f
4:12 9 11 mph 1017.5mb 46f
4:06 10 14 mph 1017.4mb 46f
4:00 11 16 mph 1017.5mb 46f
3:54 11 15 mph 1017.5mb 46f
3:48 9 11 mph 1017.6mb 46f
3:42 9 13 mph 1017.6mb 46f
3:36 8 11 mph 1017.7mb 45f
3:30 9 11 mph 1017.9mb 45f
3:24 8 10 mph 1017.8mb 45f
3:18 8 10 mph 1017.9mb 45f
3:12 8 10 mph 1017.9mb 45f
3:06 8 11 mph 1017.7mb 45f
3:00 8 11 mph 1017.6mb 46f
2:54 7 10 mph 1017.6mb 45f
2:48 7 8 mph 1017.5mb -
2:42 7 9 mph 1017.6mb -
2:36 8 10 mph 1017.7mb -
2:30 7 9 mph 1017.8mb 45f
2:24 7 9 mph 1018mb 45f
2:18 8 10 mph 1018.1mb 45f
2:12 8 10 mph 1018.1mb 45f
2:06 7 10 mph 1018.2mb 45f
2:00 8 9 mph 1018.4mb 44f
1:54 8 9 mph 1018.4mb 44f
1:48 7 10 mph - -
1:42 8 10 mph - -
1:36 8 10 mph - -
1:30 8 11 mph 1018.9mb 44f
1:24 9 11 mph 1018.9mb 44f
1:18 10 14 mph 1018.8mb 44f
1:12 10 14 mph 1019mb 44f
1:06 10 13 mph 1019.1mb 44f
1:00 9 13 mph 1019.2mb 44f
12:54 9 14 mph 1019.2mb 44f
12:48 8 11 mph 1019.3mb 44f
12:42 9 14 mph 1019.3mb 44f
12:36 9 14 mph 1019.5mb 44f
12:30 10 11 mph 1019.6mb 44f
12:24 9 11 mph 1019.5mb 44f
12:18 8 11 mph 1019.3mb 44f
12:12 9 13 mph 1019.5mb 44f
12:06 9 13 mph 1019.6mb 44f
12:00 8 11 mph 1019.4mb 44f
Dom 05/01 11:54 8 10 mph 1019.6mb 44f
11:48 7 9 mph 1019.4mb 44f
11:42 7 9 mph 1019.4mb 44f
11:36 7 10 mph 1019.6mb 44f
11:30 8 10 mph 1019.8mb 43f
11:24 7 9 mph 1020mb 44f
11:18 7 9 mph 1020mb 44f
11:12 7 9 mph 1020.1mb 44f
11:06 7 9 mph 1020.2mb 44f
11:00  -  mph 1020.5mb 44f
10:54  -  mph 1020.5mb 44f
10:48  -  mph 1020.7mb -
10:42  -  mph 1021mb -
10:36  -  mph 1021mb -
10:30  -  mph 1021mb -
10:24  -  mph 1021.2mb -
10:18  -  mph 1021.3mb -
10:12  -  mph 1021.2mb -
10:06  -  mph 1021.2mb -
10:00 7 9 mph 1021.2mb 43f
9:54 6 8 mph 1021.2mb 43f
9:48  -  mph 1021.3mb -
9:42  -  mph 1021.2mb -
9:36  -  mph 1021.5mb -
9:30  -  mph 1021.6mb -
9:24  -  mph 1021.7mb -
9:18 6 9 mph 1021.6mb 43f
9:12 3 8 mph 1021.5mb 42f
9:06 3 9 mph 1021.6mb 43f
9:00  -  mph 1021.8mb 43f
8:54  -  mph 1021.9mb 42f
8:48  -  mph 1021.9mb -
8:42  -  mph 1022.1mb -
8:36  -  mph 1022.2mb -
8:30 3 7 mph 1022.2mb -
8:24 5 8 mph 1022.4mb -
8:18 3 6 mph 1022.4mb -
8:12 3 6 mph 1022.5mb -
8:06 2 5 mph 1022.4mb -
8:00 3 7 mph 1022.5mb -
7:54 2 5 mph 1022.5mb -
7:48 2 5 mph 1022.6mb -
7:30 2 5 mph 1022.6mb 42f
7:24 2 5 mph 1022.6mb 42f
7:18 2 5 mph 1022.6mb 42f
7:12 1 3 mph 1022.6mb -
7:06 1 2 mph 1022.6mb -
7:00  -  mph 1022.7mb 42f
6:54  -  mph 1022.8mb 42f
6:48  -  mph 1022.8mb 42f
6:42  -  mph 1022.7mb 43f
6:36  -  mph 1022.7mb 43f
6:30  -  mph 1022.8mb 43f
6:24  -  mph 1022.8mb 43f
6:18 2 6 mph 1022.9mb -
6:12 2 5 mph 1022.9mb -
6:06 3 6 mph 1022.9mb -
6:00 3 8 mph 1023mb 44f
5:54 5 8 mph 1023.1mb 44f
5:48  -  mph 1023.1mb -
5:42  -  mph 1023.1mb -
5:36  -  mph 1023.2mb -
5:30 5 8 mph 1023.2mb 45f
5:24 3 8 mph 1023.3mb 45f
5:18 3 6 mph 1023.3mb 46f
5:12 2 5 mph 1023.4mb 46f
5:06 5 9 mph 1023.5mb 46f
5:00 3 8 mph 1023.5mb 46f
4:54 3 7 mph 1023.5mb 46f
4:48 3 7 mph 1023.5mb 46f
4:42 6 9 mph 1023.5mb 47f
4:36 3 6 mph 1023.6mb 47f
4:30 3 6 mph 1023.6mb 47f
4:24 2 5 mph 1023.6mb 47f
4:18 3 7 mph 1023.7mb 47f
4:12 2 3 mph 1023.7mb 47f
4:06 2 5 mph 1023.7mb 47f
4:00 3 7 mph 1023.5mb 47f
3:54 3 10 mph 1023.3mb 47f
3:48 3 7 mph 1023.4mb 47f
3:42 2 5 mph 1023.6mb 47f
3:36 3 6 mph 1023.5mb 47f
3:30 3 9 mph 1023.6mb 47f
3:24 3 7 mph 1023.7mb 47f
3:18 5 7 mph 1023.8mb 48f
3:12 3 8 mph 1023.9mb 49f
3:06 3 7 mph 1023.8mb 49f
3:00 5 8 mph 1023.8mb 49f
2:54 3 7 mph 1023.9mb 49f
2:48 6 10 mph 1023.9mb 49f
2:42 6 8 mph 1023.8mb 50f
2:36 5 7 mph 1023.8mb 50f
2:30 5 9 mph 1023.9mb 50f
2:24 3 8 mph 1024mb 50f
2:18 3 8 mph 1024.1mb 50f
2:12 5 9 mph 1024.1mb 50f
2:06 5 9 mph 1024.1mb 50f
2:00 5 8 mph 1024.1mb 50f
1:54 3 6 mph 1024.1mb 50f
1:48 3 9 mph 1024.1mb 51f
1:42 5 8 mph 1024.1mb 50f
1:36 5 8 mph 1024.1mb 50f
1:30 6 11 mph 1024.1mb 50f
1:24 3 9 mph 1024mb 51f
1:18 5 8 mph 1024mb 51f
1:12 5 10 mph 1024mb 51f
1:06 3 8 mph 1023.9mb 51f
1:00 3 8 mph 1023.8mb 51f
12:54 5 13 mph 1023.9mb 51f
12:48 5 10 mph 1023.8mb 51f
12:42 5 9 mph 1023.8mb 52f
12:36 3 9 mph 1024mb 51f
12:30 5 9 mph 1024.2mb 51f
12:24 3 8 mph 1024.4mb 51f
12:18 6 10 mph 1024.5mb 50f
12:12 7 11 mph 1024.5mb 51f
12:06 3 7 mph 1024.5mb 51f
12:00 5 9 mph 1024.4mb 51f
11:54 5 9 mph 1024.7mb 51f
11:48 3 7 mph 1024.5mb 51f
11:42 6 9 mph 1024.8mb 50f
11:36 3 8 mph 1025.2mb 51f
11:30 6 9 mph 1025.3mb 51f
11:24 5 9 mph 1025.2mb 51f
11:18 5 9 mph 1025.2mb 51f
11:12 3 7 mph 1025mb 51f
11:06 3 6 mph 1024.8mb 51f
11:00 5 8 mph 1024.8mb 51f
10:54 5 9 mph 1024.8mb 51f
10:48 5 9 mph 1024.9mb -
10:42 5 8 mph 1024.9mb -
10:36 5 9 mph 1024.9mb -
10:30 6 8 mph 1024.9mb 51f
10:24 3 8 mph 1024.9mb 51f
10:18 6 8 mph 1024.9mb 51f
10:12 5 9 mph 1025mb 51f
10:06 3 7 mph 1025mb 51f
10:00 6 9 mph 1025.1mb 51f
9:54 6 8 mph 1025.1mb 50f
9:48 6 9 mph 1025.1mb 50f
9:42 5 7 mph 1025.2mb 51f
9:36 6 8 mph 1025.2mb 51f
9:30 3 7 mph 1025.4mb 51f
9:24 3 6 mph 1025.4mb 51f
9:18 5 8 mph 1025.4mb 51f
9:12 3 7 mph 1025.4mb 51f
9:06 3 6 mph 1025.4mb 51f
9:00 2 6 mph 1025.2mb 51f
8:54 5 8 mph 1025.3mb 50f
8:48 2 6 mph 1025.2mb 50f
8:42 2 5 mph 1025.1mb 50f
8:36 2 5 mph 1025mb 50f
8:30 2 6 mph 1025mb 50f
8:24 3 6 mph 1024.9mb 50f
8:18 3 6 mph 1024.9mb 50f
8:12 2 5 mph 1025.1mb 49f
8:06 2 5 mph 1025mb 49f
8:00 3 6 mph 1025.1mb 48f
7:54 2 6 mph 1025.1mb 48f
7:48 2 3 mph 1025.2mb 47f
7:42 2 5 mph 1025.1mb 47f
7:36 3 5 mph 1025.1mb 47f
7:30 2 5 mph 1025.2mb 47f
7:24 2 5 mph 1025.1mb 47f
7:18  -  3 mph 1025.1mb 46f
7:12  -  1 mph 1025.2mb 46f
7:06  -  1 mph 1025.2mb 46f
7:00  -  1 mph 1025.2mb 46f
6:54 1 2 mph 1025.2mb 46f
6:48  -  1 mph 1025.2mb 46f
6:42 1 2 mph 1025.2mb 46f
6:36  -  2 mph 1024.9mb 45f
6:30  -  2 mph 1024.9mb 45f
6:24 1 2 mph 1024.7mb 45f
6:18  -  3 mph 1024.7mb 45f
6:12 1 2 mph 1024.7mb 45f
6:06 1 3 mph 1024.6mb 44f
6:00 1 2 mph 1024.6mb 44f
5:54 1 2 mph 1024.5mb 44f
5:48 2 3 mph 1024.4mb 44f
5:42 2
mph
1024.4mb 44f
5:36 1 2 mph 1024.5mb 44f
5:30  -  1 mph 1024.6mb 44f
5:24 1
mph
1024.6mb 44f
5:18  -  1 mph 1024.4mb 44f
5:12  -  1 mph 1024.4mb 44f
5:06 1
mph
1024.3mb 44f
5:00 2
mph
1024.4mb 44f
4:54 1
mph
1024.2mb 44f
4:48  -  1 mph 1024.1mb 44f
4:42 1 2 mph 1024.2mb 43f
4:36 1
mph
1024.2mb 44f
4:30 2
mph
1024.2mb 44f
4:24 1 2 mph 1024.1mb 43f
4:18 1
mph
1024.3mb 43f
4:12  -  1 mph 1024.2mb 44f
4:06  -  1 mph 1024.2mb 44f
4:00  -  mph 1024.2mb 43f
3:54 1
mph
1024.2mb 43f
3:48 2
mph
1024.2mb 43f
3:42 2
mph
1024.3mb 43f
3:36 2
mph
1024.1mb 43f
3:30  -  1 mph 1024.1mb 43f
3:24  -  mph 1024.1mb 43f
3:18  -  1 mph 1024.1mb 43f
3:12  -  1 mph 1024.1mb 43f
3:06  -  mph 1024.1mb 43f
3:00 1
mph
1024.3mb 43f
2:54 1 2 mph 1024.3mb 43f
2:48 2
mph
1024.3mb 43f
2:42 2
mph
1024.3mb 43f
2:36 2 3 mph 1024.3mb 43f
2:30 3
mph
1024.3mb 43f
2:24 3
mph
1024.3mb 43f
2:18 3
mph
1024.3mb 43f
2:12 2 3 mph 1024.4mb 43f
2:06 2 3 mph 1024.5mb 43f
2:00 2 3 mph 1024.5mb 44f
1:54 3
mph
1024.5mb 44f
1:48  -  mph 1024.4mb 44f
1:42  -  mph 1024.4mb 44f
1:36  -  mph 1024.3mb 44f
1:30 2 3 mph 1024.4mb 44f
1:24 2 3 mph 1024.4mb 44f
1:18 2 3 mph 1024.5mb 44f
1:12 3 5 mph 1024.6mb 44f
1:06 3 5 mph 1024.6mb 44f
1:00 3 5 mph 1024.8mb 44f
12:54 3 5 mph 1025mb 44f
12:48 3 5 mph 1024.9mb 44f
12:42 3 6 mph 1025mb 44f
12:36 3 5 mph 1025.1mb 44f
12:30 3 5 mph 1025.2mb 45f
12:24 3 5 mph 1025.2mb 45f
12:18 3 6 mph 1025.2mb 45f
12:12 5 6 mph 1025.3mb 45f
12:06 3 5 mph 1025.4mb 45f
12:00 3 6 mph 1025.3mb 45f
Sáb 04/30 11:54 3 6 mph 1025.3mb 45f
11:48 3 6 mph 1025.3mb 45f
11:42 5 8 mph 1025.3mb 45f
11:36 5 6 mph 1025.3mb 45f
11:30 5 8 mph 1025.3mb 46f
11:24 6 10 mph 1025.2mb 46f
11:18 6 7 mph 1025.2mb 46f
11:12 6 8 mph 1025.2mb 46f
11:06 6 9 mph 1025mb 46f
11:00 5 7 mph 1025.1mb 46f
10:54 6 8 mph 1025.2mb 46f
10:48  -  mph 1025.3mb -
10:42  -  mph 1025.2mb -
10:36  -  mph 1025.2mb -
10:30  -  mph 1025.4mb -
10:24  -  mph 1025.4mb -
10:18  -  mph 1025.4mb 46f
10:12  -  mph 1025.4mb 46f
10:06  -  mph 1025.4mb 46f
10:00 6 9 mph 1025.5mb 46f
9:54 7 10 mph 1025.5mb 46f
9:48 6 11 mph 1025.4mb -
9:42 6 9 mph 1025.4mb -
9:36 6 9 mph 1025.4mb -
9:30  -  mph 1025.4mb -
9:24  -  mph 1025.5mb -
9:18 5 8 mph 1025.5mb -
9:12 6 9 mph 1025.4mb -
9:06 6 9 mph 1025.4mb -
9:00 6 11 mph 1025.5mb 46f
8:54 6 10 mph 1025.4mb 46f
8:48 6 10 mph 1025.5mb -
8:42 7 11 mph 1025.6mb -
8:36 7 10 mph 1025.7mb -
8:30  -  mph 1025.6mb 46f
8:24  -  mph 1025.5mb 46f
8:18 7 10 mph 1025.5mb -
8:12 6 11 mph 1025.4mb -
8:06 6 10 mph 1025.3mb -
8:00  -  mph 1025.4mb 46f
7:54  -  mph 1025.2mb 46f
7:48  -  mph 1025.2mb -
7:42  -  mph 1025.1mb -
7:36  -  mph 1025.1mb -
7:00  -  mph - 48f
6:54  -  mph - 48f
6:48  -  mph - 48f
6:42  -  mph - 48f
6:36  -  mph - 48f
6:30 8 11 mph 1024.6mb 48f
6:24 7 14 mph 1024.6mb 49f
6:18 7 13 mph 1024.6mb -
6:12 8 15 mph 1024.6mb -
6:06 8 16 mph 1024.7mb -
6:00  -  mph 1024.7mb 50f
5:54  -  mph 1024.7mb 50f
5:48  -  mph 1024.7mb 50f
5:42  -  mph 1024.7mb -
5:36  -  mph 1024.7mb -
5:30 9 16 mph 1024.7mb 50f
5:24 9 16 mph 1024.6mb 51f
5:18 7 17 mph 1024.5mb 51f
5:12 7 11 mph 1024.4mb 52f
5:06 8 16 mph 1024.3mb 51f
5:00 8 17 mph 1024.3mb 51f
4:54 10 16 mph 1024.2mb 51f
4:48 9 17 mph 1024.2mb 51f
4:42 10 18 mph 1024mb 51f
4:36 11 20 mph 1024mb 51f
4:30 11 22 mph 1024.1mb 51f
4:24 10 20 mph 1024.1mb 52f
4:18 11 18 mph 1024.1mb 52f
4:12 10 18 mph 1024.1mb 51f
4:06 10 20 mph 1023.8mb 52f
4:00 11 18 mph 1023.7mb 52f
3:54 10 18 mph 1023.6mb 53f
3:48 10 18 mph 1023.5mb 53f
3:42 10 17 mph 1023.4mb 53f
3:36 10 18 mph 1023.2mb 54f
3:30 11 20 mph 1023.2mb 54f
3:24 8 16 mph 1023.2mb 54f
3:18 8 17 mph 1023.2mb 55f
3:12 8 14 mph 1023.2mb 55f
3:06 6 13 mph 1023.2mb 55f
3:00 7 14 mph 1023mb 56f
2:54 8 14 mph 1023mb 56f
2:48 8 15 mph 1023mb 55f
2:42 9 20 mph 1023mb 55f
2:36 9 17 mph 1023mb 56f
2:30 9 17 mph 1022.8mb 55f
2:24 9 17 mph 1022.7mb 55f
2:18 9 15 mph 1022.6mb 56f
2:12 9 16 mph 1022.6mb 56f
2:06 8 13 mph 1022.5mb 56f
2:00 10 18 mph 1022.5mb 56f
1:54 10 17 mph 1022.4mb 56f
1:48 9 16 mph 1022.4mb 57f
1:42 9 15 mph 1022.4mb 57f
1:36 10 17 mph 1022.6mb 56f
1:30 10 16 mph 1022.5mb 56f
1:24 8 16 mph 1022.5mb 57f
1:18 9 14 mph 1022.5mb 57f
1:12 8 14 mph 1022.6mb 57f
1:06 9 13 mph 1022.5mb 57f
1:00 9 16 mph 1022.5mb 57f
12:54 8 14 mph 1022.5mb 56f
12:48 8 14 mph 1022.6mb 56f
12:42 9 14 mph 1022.6mb 56f
12:36 9 15 mph 1022.6mb 56f
12:30 9 14 mph 1022.5mb 55f
12:24 7 13 mph 1022.5mb 55f
12:18 7 13 mph 1022.4mb 56f
12:12 7 11 mph 1022.5mb 57f
12:06 5 7 mph 1022.6mb 58f
12:00 2 3 mph 1022.7mb 58f
11:54 2 3 mph 1022.7mb 58f
11:48 2 5 mph 1022.9mb 57f
11:42 2 3 mph 1022.9mb 58f
11:36 2 3 mph 1022.9mb 57f
11:30 2 5 mph 1023.1mb 57f
11:24 2 3 mph 1023.1mb 56f
11:18 2 3 mph 1023.1mb 56f
11:12 2 3 mph 1023.2mb 56f
11:06 2 5 mph 1023.1mb 55f
11:00 2 3 mph 1023mb 54f
10:54 1 3 mph 1023.1mb 54f
10:48 2 3 mph 1023.3mb -
10:42 3 5 mph 1023.3mb -
10:36 3 6 mph 1023.2mb -
10:30 5 6 mph 1023.5mb 52f
10:24 5 7 mph 1023.5mb 53f
10:18 5 7 mph 1023.5mb 53f
10:12 6 8 mph 1023.6mb 53f
10:06 6 8 mph 1023.7mb 54f
10:00 6 8 mph 1023.8mb 53f
9:54 7 9 mph 1023.8mb 53f
9:48 7 9 mph 1023.7mb 53f
9:42 6 7 mph 1023.9mb 53f
9:36 6 8 mph 1023.7mb 52f
9:30 6 8 mph 1023.7mb 52f
9:24 6 8 mph 1024.1mb 50f
9:18 6 8 mph 1024.1mb 50f
9:12 7 9 mph 1023.8mb 50f
9:06 7 9 mph 1023.8mb 51f
9:00 5 6 mph 1023.8mb 51f
8:54 5 8 mph 1024mb 51f
8:48 5 6 mph 1024mb 50f
8:42 5 6 mph 1024.1mb 50f
8:36 2 6 mph 1024.1mb 50f
8:30 2 6 mph 1024.3mb 49f
8:24 3 6 mph 1024.3mb 49f
8:18 5 8 mph 1024.4mb 48f
8:12 3 7 mph 1024.5mb 50f
8:06 3 7 mph 1024.5mb 50f
8:00 3 8 mph 1024.5mb 49f
7:54 3 6 mph 1024.3mb 49f
7:48 2 6 mph 1024.1mb 49f
7:42 3 7 mph 1024.1mb 48f
7:36 2 6 mph 1024.1mb 48f
7:30 5 6 mph 1024mb 48f
7:24 2 5 mph 1023.7mb 47f
7:18 3 6 mph 1023.7mb 47f
7:12 2 5 mph 1023.6mb 47f
7:06 2
mph
1023.5mb 47f
7:00  -  1 mph 1023.5mb 47f
6:54  -  1 mph 1023.4mb 47f
6:48  -  1 mph 1023.5mb 46f
6:42 1 2 mph 1023.4mb 45f
6:36  -  1 mph 1023.2mb 45f
6:30  -  1 mph 1023mb 45f
6:24  -  1 mph 1022.8mb 45f
6:18 1 2 mph 1022.8mb 45f
6:12 2
mph
1022.8mb 45f
6:06 1 2 mph 1022.7mb 44f
6:00 1 2 mph 1022.5mb 43f
5:54  -  1 mph 1022.4mb 43f
5:48 1 3 mph 1022.2mb 43f
5:42 2 3 mph 1022mb 43f
5:36 2
mph
1022mb 43f
5:30 1 3 mph 1022mb 43f
5:24 2 3 mph 1021.8mb 43f
5:18 1 2 mph 1021.8mb 43f
5:12  -  1 mph 1021.8mb 43f
5:06 2 3 mph 1021.8mb 43f
5:00 1 2 mph 1021.9mb 43f
4:54 2
mph
1021.9mb 43f
4:48 1 2 mph 1021.9mb 44f
4:42 2
mph
1022.3mb 43f
4:36 2
mph
1022.2mb 44f
4:30 1 2 mph 1022.2mb 43f
4:24  -  mph 1022.2mb 44f
4:18  -  1 mph 1022.4mb 43f
4:12  -  1 mph 1022.4mb 44f
4:06  -  1 mph 1022.4mb 44f
4:00 1
mph
1022.4mb 44f
3:54 1
mph
1022.5mb 43f
3:48 1
mph
1022.5mb 43f
3:42  -  1 mph 1022.4mb 43f
3:36  -  1 mph 1022.4mb 43f
3:30  -  mph 1022.1mb 43f
3:24  -  2 mph 1022.1mb 43f
3:18  -  1 mph 1022.1mb 44f
3:12  -  1 mph 1021.9mb 44f
3:06  -  2 mph 1022mb 44f
3:00  -  2 mph 1022.1mb 43f
2:54  -  1 mph 1022mb 44f
2:48  -  2 mph 1021.8mb 44f
2:42  -  2 mph 1021.7mb 44f
2:36 1 3 mph 1021.7mb 44f
2:30 1 5 mph 1021.8mb 45f
2:24 2 5 mph 1021.8mb 45f
2:18 2 3 mph 1021.9mb 45f
2:12 2 3 mph 1022mb 45f
2:06 2 3 mph 1022mb 45f
2:00 1 2 mph 1022.1mb 45f
1:54 1 2 mph 1022.2mb 44f
1:48 1 2 mph 1022.3mb -
1:42 1 2 mph 1022.2mb -
1:36 2 3 mph 1022.2mb -
1:30 2 3 mph 1022.1mb 44f
1:24 2
mph
1022.1mb 44f
1:18 1 2 mph 1022.1mb 44f
1:12 1 2 mph 1022.1mb 44f
1:06 2 3 mph 1022.2mb 44f
1:00 1 2 mph 1022.2mb 44f
12:54 1 2 mph 1022.3mb 45f
12:48  -  1 mph 1022.4mb 44f
12:42  -  2 mph 1022.4mb 44f
12:36 1
mph
1022.3mb 44f
12:30  -  1 mph 1022.2mb 44f
12:24  -  1 mph 1022.2mb 44f
12:18  -  mph 1022.2mb 44f
12:12  -  mph 1022.2mb 44f
12:06  -  mph 1022.2mb 44f
12:00  -  1 mph 1022.2mb 44f
Sex 04/29 11:54 2
mph
1022.2mb 44f
11:48 1
mph
1022.2mb 44f
11:42  -  1 mph 1022.1mb 45f
11:36  -  1 mph 1022.1mb 44f
11:30 1 2 mph 1022.1mb 44f
11:24 1 2 mph 1022mb 44f
11:18 1 2 mph 1021.9mb 44f
11:12 1 3 mph 1021.7mb 45f
11:06 2 3 mph 1021.6mb 45f
11:00  -  mph - 45f
10:54  -  mph - 45f
10:48  -  2 mph 1021.6mb -
10:42 2 6 mph 1021.6mb -
10:36 1 2 mph 1021.6mb -
10:30  -  1 mph 1021.6mb -
10:24  -  1 mph 1021.8mb -
10:18  -  1 mph 1021.8mb 44f
10:12  -  1 mph 1021.9mb 44f
10:06  -  1 mph 1021.9mb 44f
10:00  -  mph 1021.8mb 44f
9:54  -  mph 1021.7mb 44f
9:48 1 3 mph 1021.6mb -
9:42 1 3 mph 1021.5mb -
9:36 2 3 mph 1021.5mb -
9:30 5 9 mph 1021.3mb -
9:24 3 8 mph 1021mb -
9:18 5 8 mph 1021mb 45f
9:12 3 8 mph 1021.1mb 45f
9:06 5 8 mph 1021.3mb 45f
9:00  -  mph 1021.3mb 45f
8:54  -  mph 1021.3mb 45f
8:48  -  mph 1021.4mb -
8:42  -  mph 1021.4mb -
8:36  -  mph 1021.4mb -
8:30  -  mph 1021.4mb -
8:24  -  mph 1021.4mb -
8:18  -  mph 1021.4mb -
8:12  -  mph 1021mb -
8:06  -  mph 1021mb -
8:00  -  mph 1020.9mb -
7:54  -  mph 1020.9mb -
7:48  -  mph 1020.7mb -
7:42  -  mph 1020.7mb -
7:36  -  mph 1020.5mb -
7:30 5 10 mph 1020.5mb 47f
7:24 5 8 mph 1020.5mb 47f
7:18 6 11 mph 1020.4mb 47f
7:12  -  mph 1020.2mb 48f
7:06  -  mph 1020.2mb 48f
7:00  -  mph - 48f
6:54  -  mph - 49f
6:48  -  mph 1020.3mb -
6:42  -  mph 1020.2mb -
6:36  -  mph 1020.2mb -
6:30 3 8 mph 1020.5mb -
6:24 6 8 mph 1020.5mb -
6:18 5 8 mph 1020.6mb 49f
6:12 3 9 mph 1020.5mb 49f
6:06 6 10 mph 1020.5mb 49f
6:00  -  mph 1020.2mb 49f
5:54  -  mph 1020mb 50f
5:48 5 9 mph 1020mb -
5:42 5 9 mph 1020.3mb -
5:36 6 10 mph 1020.4mb -
5:30 3 7 mph 1020.5mb 50f
5:24 5 9 mph 1020.5mb 50f
5:18 6 10 mph 1020.5mb 50f
5:12 5 10 mph 1020.5mb 50f
5:06 3 7 mph 1020.5mb 50f
5:00 6 14 mph 1020.5mb 51f
4:54 6 10 mph 1020.4mb 51f
4:48 5 10 mph 1020.2mb 51f
4:42 5 8 mph 1020.2mb 51f
4:36 6 10 mph 1020.2mb 51f
4:30 6 10 mph 1020.1mb 51f
4:24 6 10 mph 1020mb 51f
4:18 7 14 mph 1020.1mb 51f
4:12 8 16 mph 1020.2mb 51f
4:06 8 14 mph 1020.2mb 51f
4:00 7 10 mph 1020.1mb 52f
3:54 8 13 mph 1020mb 53f
3:48 6 10 mph 1019.9mb 54f
3:42 6 9 mph 1019.8mb 54f
3:36 6 9 mph 1019.8mb 54f
3:30 5 14 mph 1019.8mb 54f
3:24 6 10 mph 1019.9mb 54f
3:18 6 11 mph 1019.9mb 54f
3:12 6 10 mph 1019.9mb 55f
3:06 6 10 mph 1019.9mb 54f
3:00 6 10 mph 1020mb 54f
2:54 2 7 mph 1020mb 54f
2:48 2 6 mph 1020.2mb 55f
2:42 6 9 mph 1020.2mb 54f
2:36 3 9 mph 1020.3mb 53f
2:30 5 9 mph 1020.3mb 53f
2:24 5 10 mph 1020.5mb 54f
2:18 5 8 mph 1020.5mb 55f
2:12 5 8 mph 1020.5mb 55f
2:06 6 10 mph 1020.6mb 53f
2:00 3 9 mph 1020.7mb 53f
1:54 6 14 mph 1020.8mb 53f
1:48 7 11 mph 1020.9mb 53f
1:42 8 14 mph 1020.9mb 53f
1:36 6 10 mph 1020.9mb 53f
1:30 8 14 mph 1021.1mb 52f
1:24 6 8 mph 1021.1mb 52f
1:18 6 10 mph 1021.2mb 52f
1:12 7 11 mph 1021.3mb 53f
1:06 7 11 mph 1021.5mb 52f
1:00 7 9 mph 1021.5mb 52f
12:54 8 10 mph 1021.6mb 51f
12:48 5 8 mph 1021.7mb 52f
12:42 6 10 mph 1021.7mb 52f
12:36 7 10 mph 1021.7mb 51f
12:30 8 11 mph 1021.7mb 51f
12:24 6 10 mph 1021.8mb 51f
12:18 6 9 mph 1021.8mb 51f
12:12 6 9 mph 1022mb 52f
12:06 6 10 mph 1022.2mb 52f
12:00 5 6 mph 1022.2mb 51f
11:54 6 9 mph 1022.2mb 51f
11:48 6 8 mph 1022.3mb 50f
11:42 6 9 mph 1022.3mb 50f
11:36 7 10 mph 1022.4mb 50f
11:30 6 9 mph 1022.4mb 50f
11:24 6 10 mph 1022.4mb 50f
11:18 5 8 mph 1022.3mb 51f
11:12 8 9 mph 1022.4mb 49f
11:06 7 10 mph 1022.4mb 49f
11:00 8 10 mph 1022.3mb 49f
10:54 6 10 mph 1022.3mb 49f
10:48 6 9 mph 1022.3mb 51f
10:42 7 10 mph 1022.3mb 50f
10:36 6 13 mph 1022.4mb 50f
10:30 7 11 mph 1022.4mb 49f
10:24 7 13 mph 1022.4mb 49f
10:18 7 11 mph 1022.3mb 49f
10:12 6 9 mph 1022.4mb 49f
10:06 7 11 mph 1022.3mb 49f
10:00 6 11 mph 1022.3mb 48f
9:54 6 13 mph 1022.3mb 49f
9:48 7 11 mph 1022.3mb 48f
9:42 6 10 mph 1022.2mb 48f
9:36 6 10 mph 1022.2mb 48f
9:30 8 13 mph 1022.2mb 48f
9:24 10 16 mph 1022mb 47f
9:18 10 15 mph 1021.9mb 48f